Time;durP1;ratioP1;P1;durP2;ratioP2;P2;SDS_P1;SDS_P2;PMS_P1;PMS_P2;Temp;Humidity;BMP_temperature;BMP_pressure;BME280_temperature;BME280_humidity;BME280_pressure;Samples;Min_cycle;Max_cycle;Signal;HPM_P1;HPM_P2
2023/12/15 00:03:13;;;;;;;6.18;5.57;;;;;;;;;;10284611;28;20075;-64
2023/12/15 00:08:11;;;;;;;6.90;6.20;;;;;;;;;;10285543;28;20068;-64
2023/12/15 00:13:11;;;;;;;6.10;5.50;;;;;;;;;;10283552;28;20447;-63
2023/12/15 00:18:09;;;;;;;5.68;4.95;;;;;;;;;;10280894;28;20092;-64
2023/12/15 00:23:08;;;;;;;6.57;5.70;;;;;;;;;;10279544;28;20077;-64
2023/12/15 00:28:06;;;;;;;4.97;4.50;;;;;;;;;;10284747;28;20075;-64
2023/12/15 00:33:05;;;;;;;9.45;6.35;;;;;;;;;;10281524;28;20095;-64
2023/12/15 00:38:04;;;;;;;5.13;4.63;;;;;;;;;;10283591;28;20075;-64
2023/12/15 00:43:02;;;;;;;6.47;5.85;;;;;;;;;;10283766;28;20079;-64
2023/12/15 00:48:00;;;;;;;6.35;5.40;;;;;;;;;;10285681;28;20080;-64
2023/12/15 00:53:00;;;;;;;7.85;5.50;;;;;;;;;;10286214;28;20064;-64
2023/12/15 00:57:58;;;;;;;7.95;5.88;;;;;;;;;;10282041;28;20088;-64
2023/12/15 01:02:56;;;;;;;5.85;5.05;;;;;;;;;;10280332;28;20068;-64
2023/12/15 01:07:55;;;;;;;5.68;5.18;;;;;;;;;;10286875;28;20700;-64
2023/12/15 01:12:54;;;;;;;10.73;8.60;;;;;;;;;;10286706;28;20075;-65
2023/12/15 01:17:52;;;;;;;8.98;7.47;;;;;;;;;;10289350;28;20075;-65
2023/12/15 01:22:54;;;;;;;12.30;9.20;;;;;;;;;;10294094;28;20064;-65
2023/12/15 01:27:54;;;;;;;7.75;6.40;;;;;;;;;;10286042;28;20088;-65
2023/12/15 01:32:52;;;;;;;6.80;6.07;;;;;;;;;;10289360;28;20076;-65
2023/12/15 01:37:50;;;;;;;11.60;9.20;;;;;;;;;;10289887;28;20081;-64
2023/12/15 01:42:49;;;;;;;36.67;32.88;;;;;;;;;;10291967;28;20094;-64
2023/12/15 01:47:48;;;;;;;13.77;11.43;;;;;;;;;;10291991;28;20079;-64
2023/12/15 01:52:47;;;;;;;7.38;5.97;;;;;;;;;;10292910;28;20087;-65
2023/12/15 01:57:45;;;;;;;9.02;7.93;;;;;;;;;;10291040;28;20539;-65
2023/12/15 02:02:43;;;;;;;6.97;6.28;;;;;;;;;;10290411;28;20068;-65
2023/12/15 02:07:43;;;;;;;5.45;4.95;;;;;;;;;;10289373;28;20065;-64
2023/12/15 02:12:41;;;;;;;6.30;4.93;;;;;;;;;;10286504;28;20087;-64
2023/12/15 02:17:40;;;;;;;8.65;5.32;;;;;;;;;;10284082;28;20079;-64
2023/12/15 02:22:40;;;;;;;6.82;6.15;;;;;;;;;;10289366;28;20081;-64
2023/12/15 02:27:39;;;;;;;5.93;5.30;;;;;;;;;;10283631;28;20076;-64
2023/12/15 02:32:37;;;;;;;6.53;5.82;;;;;;;;;;10288258;28;20488;-64
2023/12/15 02:37:35;;;;;;;5.90;5.40;;;;;;;;;;10286974;28;20075;-64
2023/12/15 02:42:35;;;;;;;5.85;5.35;;;;;;;;;;10290590;28;20514;-63
2023/12/15 02:47:34;;;;;;;6.03;5.43;;;;;;;;;;10287761;28;20075;-65
2023/12/15 02:52:33;;;;;;;9.00;7.25;;;;;;;;;;10288740;28;20068;-65
2023/12/15 02:57:31;;;;;;;6.20;5.60;;;;;;;;;;10287464;28;20076;-63
2023/12/15 03:02:31;;;;;;;9.30;5.85;;;;;;;;;;10287232;28;20069;-64
2023/12/15 03:07:29;;;;;;;5.55;5.05;;;;;;;;;;10286782;28;20076;-64
2023/12/15 03:12:28;;;;;;;5.25;4.75;;;;;;;;;;10288009;28;20068;-65
2023/12/15 03:17:26;;;;;;;5.60;5.10;;;;;;;;;;10286698;28;20068;-65
2023/12/15 03:22:26;;;;;;;5.18;4.65;;;;;;;;;;10284055;28;20068;-64
2023/12/15 03:27:24;;;;;;;4.65;4.28;;;;;;;;;;10284816;28;20056;-65
2023/12/15 03:32:22;;;;;;;4.97;4.57;;;;;;;;;;10284276;28;20085;-65
2023/12/15 03:37:20;;;;;;;5.18;4.68;;;;;;;;;;10279544;28;20068;-65
2023/12/15 03:42:20;;;;;;;4.45;4.05;;;;;;;;;;10286308;28;20068;-64
2023/12/15 03:47:18;;;;;;;14.55;5.93;;;;;;;;;;10286206;28;20068;-65
2023/12/15 03:52:16;;;;;;;4.90;4.43;;;;;;;;;;10286383;28;20071;-64
2023/12/15 03:57:14;;;;;;;4.60;4.20;;;;;;;;;;10281526;28;20079;-65
2023/12/15 04:02:15;;;;;;;4.53;4.03;;;;;;;;;;10285398;28;20106;-64
2023/12/15 04:07:13;;;;;;;5.07;4.57;;;;;;;;;;10286131;28;20075;-63
2023/12/15 04:12:11;;;;;;;4.20;3.85;;;;;;;;;;10285163;28;20068;-64
2023/12/15 04:17:09;;;;;;;5.47;4.97;;;;;;;;;;10282218;28;20072;-64
2023/12/15 04:22:09;;;;;;;5.07;4.68;;;;;;;;;;10285080;28;20083;-63
2023/12/15 04:27:07;;;;;;;5.35;4.85;;;;;;;;;;10282639;28;20068;-64
2023/12/15 04:32:06;;;;;;;5.45;5.03;;;;;;;;;;10282404;28;20092;-64
2023/12/15 04:37:04;;;;;;;5.75;5.25;;;;;;;;;;10284713;28;20079;-64
2023/12/15 04:42:04;;;;;;;6.18;5.55;;;;;;;;;;10293556;28;20079;-63
2023/12/15 04:47:02;;;;;;;6.05;5.50;;;;;;;;;;10289241;28;20076;-64
2023/12/15 04:52:01;;;;;;;6.95;6.25;;;;;;;;;;10286518;28;20540;-63
2023/12/15 04:56:59;;;;;;;6.72;5.97;;;;;;;;;;10290258;28;20072;-63
2023/12/15 05:01:58;;;;;;;6.20;5.70;;;;;;;;;;10290725;28;20072;-63
2023/12/15 05:06:57;;;;;;;6.50;5.90;;;;;;;;;;10293819;28;20075;-64
2023/12/15 05:11:55;;;;;;;6.55;5.90;;;;;;;;;;10293461;28;20076;-63
2023/12/15 05:16:53;;;;;;;8.55;6.68;;;;;;;;;;10311104;28;20060;-63
2023/12/15 05:21:53;;;;;;;6.93;6.32;;;;;;;;;;10310919;28;20067;-63
2023/12/15 05:26:51;;;;;;;6.53;5.90;;;;;;;;;;10311825;28;20068;-63
2023/12/15 05:31:49;;;;;;;7.70;6.85;;;;;;;;;;10308209;28;20064;-64
2023/12/15 05:36:48;;;;;;;15.63;12.20;;;;;;;;;;10289037;28;20170;-63
2023/12/15 05:41:47;;;;;;;7.13;6.43;;;;;;;;;;10308725;28;20560;-63
2023/12/15 05:46:45;;;;;;;7.85;7.15;;;;;;;;;;10307936;28;20064;-63
2023/12/15 05:51:47;;;;;;;7.65;6.95;;;;;;;;;;10288438;28;20107;-63
2023/12/15 05:56:46;;;;;;;8.07;7.28;;;;;;;;;;10285628;28;20206;-63
2023/12/15 06:01:45;;;;;;;7.35;6.60;;;;;;;;;;10293178;28;20597;-62
2023/12/15 06:06:43;;;;;;;8.27;7.57;;;;;;;;;;10311120;28;20662;-63
2023/12/15 06:11:42;;;;;;;8.98;8.02;;;;;;;;;;10319127;28;20075;-64
2023/12/15 06:16:41;;;;;;;7.45;6.75;;;;;;;;;;10296878;28;21245;-64
2023/12/15 06:21:39;;;;;;;7.20;6.50;;;;;;;;;;10310313;28;20075;-64
2023/12/15 06:26:38;;;;;;;6.95;6.35;;;;;;;;;;10313402;28;20071;-64
2023/12/15 06:31:36;;;;;;;8.18;7.35;;;;;;;;;;10302493;28;20075;-64
2023/12/15 06:36:36;;;;;;;8.35;7.60;;;;;;;;;;10308105;28;20099;-64
2023/12/15 06:41:34;;;;;;;8.02;7.32;;;;;;;;;;10316690;28;20063;-63
2023/12/15 06:46:36;;;;;;;8.38;7.57;;;;;;;;;;10312300;28;20079;-64
2023/12/15 06:51:36;;;;;;;7.88;7.07;;;;;;;;;;10316355;28;20529;-63
2023/12/15 06:56:37;;;;;;;8.52;7.72;;;;;;;;;;10308685;28;20079;-63
2023/12/15 07:01:36;;;;;;;13.20;10.82;;;;;;;;;;10306959;28;20178;-63
2023/12/15 07:06:35;;;;;;;9.82;7.20;;;;;;;;;;10290698;28;20127;-63
2023/12/15 07:11:35;;;;;;;8.82;7.93;;;;;;;;;;10316305;28;20071;-64
2023/12/15 07:16:34;;;;;;;11.80;10.60;;;;;;;;;;10306166;28;20511;-63
2023/12/15 07:21:32;;;;;;;10.07;9.18;;;;;;;;;;10311705;28;20098;-64
2023/12/15 07:26:32;;;;;;;10.68;9.75;;;;;;;;;;10304602;28;20490;-65
2023/12/15 07:31:30;;;;;;;9.38;8.50;;;;;;;;;;10316445;28;20319;-63
2023/12/15 07:36:29;;;;;;;10.52;9.07;;;;;;;;;;10303479;28;20068;-63
2023/12/15 07:41:27;;;;;;;9.35;8.35;;;;;;;;;;10303593;28;20123;-64
2023/12/15 07:46:27;;;;;;;10.95;8.48;;;;;;;;;;10310273;28;20144;-63
2023/12/15 07:51:25;;;;;;;10.00;9.05;;;;;;;;;;10314097;28;20079;-64
2023/12/15 07:56:24;;;;;;;10.73;8.25;;;;;;;;;;10314488;28;20555;-63
2023/12/15 08:01:23;;;;;;;10.38;9.38;;;;;;;;;;10308951;28;20064;-64
2023/12/15 08:06:22;;;;;;;9.10;8.30;;;;;;;;;;10313904;28;20079;-64
2023/12/15 08:11:22;;;;;;;9.20;8.18;;;;;;;;;;10296446;28;21492;-63
2023/12/15 08:16:21;;;;;;;10.10;7.25;;;;;;;;;;10309054;28;20060;-64
2023/12/15 08:21:19;;;;;;;10.52;8.10;;;;;;;;;;10312395;28;20489;-63
2023/12/15 08:26:23;;;;;;;7.55;6.75;;;;;;;;;;10281611;28;20548;-63
2023/12/15 08:31:21;;;;;;;9.25;8.23;;;;;;;;;;10280506;28;20073;-63
2023/12/15 08:36:20;;;;;;;8.82;8.00;;;;;;;;;;10277638;28;20072;-63
2023/12/15 08:41:19;;;;;;;10.90;9.90;;;;;;;;;;10282567;28;20069;-64
2023/12/15 08:46:18;;;;;;;9.07;8.07;;;;;;;;;;10284339;28;20084;-63
2023/12/15 08:51:17;;;;;;;8.05;7.35;;;;;;;;;;10282094;28;21455;-64
2023/12/15 08:56:15;;;;;;;11.82;10.63;;;;;;;;;;10280065;28;20055;-64
2023/12/15 09:01:14;;;;;;;9.00;8.10;;;;;;;;;;10310472;28;20143;-64
2023/12/15 09:06:14;;;;;;;9.23;8.32;;;;;;;;;;10302698;28;20513;-63
2023/12/15 09:11:26;;;;;;;11.50;7.45;;;;;;;;;;10302047;28;20068;-63
2023/12/15 09:16:24;;;;;;;12.10;7.80;;;;;;;;;;10295214;28;20071;-63
2023/12/15 09:21:24;;;;;;;7.55;6.80;;;;;;;;;;10287951;28;20122;-64
2023/12/15 09:26:22;;;;;;;9.23;8.20;;;;;;;;;;10304149;28;20064;-65
2023/12/15 09:31:20;;;;;;;8.70;7.90;;;;;;;;;;10276761;28;20064;-64
2023/12/15 09:36:19;;;;;;;10.32;9.32;;;;;;;;;;10297426;28;20119;-64
2023/12/15 09:41:18;;;;;;;9.75;8.80;;;;;;;;;;10310108;28;20493;-64
2023/12/15 09:46:16;;;;;;;9.55;8.52;;;;;;;;;;10301427;28;20509;-64
2023/12/15 09:51:16;;;;;;;9.63;8.73;;;;;;;;;;10299898;28;20075;-64
2023/12/15 09:56:15;;;;;;;8.25;7.45;;;;;;;;;;10293474;28;20132;-64
2023/12/15 10:01:15;;;;;;;9.00;8.10;;;;;;;;;;10304586;28;20075;-64
2023/12/15 10:06:14;;;;;;;7.88;7.10;;;;;;;;;;10275685;28;20044;-64
2023/12/15 10:11:12;;;;;;;10.02;9.13;;;;;;;;;;10309683;28;20162;-66
2023/12/15 10:16:11;;;;;;;9.70;8.80;;;;;;;;;;10306507;28;20064;-64
2023/12/15 10:21:10;;;;;;;10.50;7.63;;;;;;;;;;10306929;28;20564;-64
2023/12/15 10:26:09;;;;;;;7.93;7.22;;;;;;;;;;10303121;28;20139;-64
2023/12/15 10:31:08;;;;;;;9.70;8.25;;;;;;;;;;10307436;28;20076;-63
2023/12/15 10:36:08;;;;;;;23.48;13.63;;;;;;;;;;10302272;28;20654;-64
2023/12/15 10:41:08;;;;;;;11.68;10.40;;;;;;;;;;10310694;28;20488;-64
2023/12/15 10:46:08;;;;;;;10.93;9.43;;;;;;;;;;10322844;28;20063;-64
2023/12/15 10:51:08;;;;;;;8.35;7.55;;;;;;;;;;10298774;28;20571;-63
2023/12/15 10:56:08;;;;;;;10.15;9.13;;;;;;;;;;10296263;28;20131;-63
2023/12/15 11:01:09;;;;;;;14.18;12.68;;;;;;;;;;10300999;28;20464;-64
2023/12/15 11:06:07;;;;;;;10.15;9.15;;;;;;;;;;10300357;28;20067;-64
2023/12/15 11:11:08;;;;;;;13.75;10.35;;;;;;;;;;10297189;28;20525;-63
2023/12/15 11:16:06;;;;;;;10.35;9.40;;;;;;;;;;10288976;28;20119;-64
2023/12/15 11:21:06;;;;;;;11.38;10.05;;;;;;;;;;10304178;28;20131;-63
2023/12/15 11:26:05;;;;;;;10.52;8.95;;;;;;;;;;10300837;28;20080;-65
2023/12/15 11:31:20;;;;;;;9.40;8.45;;;;;;;;;;10289554;28;21486;-63
2023/12/15 11:36:19;;;;;;;8.40;7.55;;;;;;;;;;10297842;28;20136;-63
2023/12/15 11:41:19;;;;;;;9.65;8.57;;;;;;;;;;10299848;28;20072;-64
2023/12/15 11:46:19;;;;;;;14.25;12.13;;;;;;;;;;10307601;28;20067;-63
2023/12/15 11:51:20;;;;;;;12.90;11.38;;;;;;;;;;10303160;28;20083;-63
2023/12/15 11:56:18;;;;;;;10.68;9.57;;;;;;;;;;10305524;28;20067;-64
2023/12/15 12:01:18;;;;;;;8.98;8.07;;;;;;;;;;10302173;28;20064;-64
2023/12/15 12:06:21;;;;;;;13.15;11.20;;;;;;;;;;10305295;28;20056;-64
2023/12/15 12:11:21;;;;;;;12.82;10.60;;;;;;;;;;10285062;28;20143;-64
2023/12/15 12:16:21;;;;;;;11.57;9.70;;;;;;;;;;10290761;28;20572;-64
2023/12/15 12:21:19;;;;;;;10.65;9.55;;;;;;;;;;10308464;28;20478;-65
2023/12/15 12:26:18;;;;;;;11.23;10.07;;;;;;;;;;10305166;28;20066;-63
2023/12/15 12:31:17;;;;;;;11.38;10.27;;;;;;;;;;10290749;28;20473;-64
2023/12/15 12:36:17;;;;;;;10.27;9.00;;;;;;;;;;10291312;28;20522;-64
2023/12/15 12:41:16;;;;;;;13.18;11.77;;;;;;;;;;10308623;28;20075;-64
2023/12/15 12:46:15;;;;;;;14.50;12.48;;;;;;;;;;10287667;28;20063;-64
2023/12/15 12:51:13;;;;;;;11.85;10.63;;;;;;;;;;10268839;28;20527;-64
2023/12/15 12:56:13;;;;;;;14.68;11.98;;;;;;;;;;10288965;28;20131;-63
2023/12/15 13:01:11;;;;;;;11.38;10.02;;;;;;;;;;10304450;28;20063;-63
2023/12/15 13:06:10;;;;;;;11.95;10.57;;;;;;;;;;10301836;28;20068;-63
2023/12/15 13:11:08;;;;;;;20.83;16.75;;;;;;;;;;10284566;28;20123;-61
2023/12/15 13:16:08;;;;;;;10.02;9.00;;;;;;;;;;10312376;28;20060;-63
2023/12/15 13:21:08;;;;;;;13.13;11.75;;;;;;;;;;10305940;28;20163;-63
2023/12/15 13:26:08;;;;;;;12.82;11.52;;;;;;;;;;10314800;28;20060;-63
2023/12/15 13:31:08;;;;;;;13.80;12.40;;;;;;;;;;10295636;28;20561;-63
2023/12/15 13:36:06;;;;;;;15.73;13.75;;;;;;;;;;10307791;28;20071;-64
2023/12/15 13:41:13;;;;;;;36.60;29.00;;;;;;;;;;10298239;28;20536;-63
2023/12/15 13:46:13;;;;;;;43.60;32.33;;;;;;;;;;10294425;28;21595;-64
2023/12/15 13:51:11;;;;;;;52.58;39.53;;;;;;;;;;10301313;28;20064;-64
2023/12/15 13:56:09;;;;;;;23.58;19.17;;;;;;;;;;10301327;28;20060;-64
2023/12/15 14:01:08;;;;;;;20.10;16.40;;;;;;;;;;10296238;28;20611;-64
2023/12/15 14:06:10;;;;;;;21.83;17.27;;;;;;;;;;10283456;28;20154;-64
2023/12/15 14:11:08;;;;;;;17.15;14.57;;;;;;;;;;10304770;28;20064;-64
2023/12/15 14:16:06;;;;;;;30.23;24.02;;;;;;;;;;10306750;28;20655;-64
2023/12/15 14:21:08;;;;;;;36.60;23.10;;;;;;;;;;10298818;28;20501;-63
2023/12/15 14:26:07;;;;;;;29.17;25.33;;;;;;;;;;10282836;28;20508;-64
2023/12/15 14:31:05;;;;;;;22.75;17.77;;;;;;;;;;10270667;28;20053;-63
2023/12/15 14:36:04;;;;;;;26.33;23.55;;;;;;;;;;10275319;28;20052;-64
2023/12/15 14:41:03;;;;;;;36.45;28.40;;;;;;;;;;10268430;28;20668;-65
2023/12/15 14:46:02;;;;;;;36.85;29.88;;;;;;;;;;10284065;28;20043;-63
2023/12/15 14:51:00;;;;;;;19.42;16.10;;;;;;;;;;10303842;28;20131;-64
2023/12/15 14:55:59;;;;;;;19.67;17.58;;;;;;;;;;10296731;28;20072;-64
2023/12/15 15:00:58;;;;;;;36.15;26.90;;;;;;;;;;10289954;28;20073;-62
2023/12/15 15:05:57;;;;;;;64.15;45.95;;;;;;;;;;10282684;28;20084;-63
2023/12/15 15:10:55;;;;;;;64.82;45.95;;;;;;;;;;10284086;28;20079;-63
2023/12/15 15:15:53;;;;;;;60.03;41.10;;;;;;;;;;10285332;28;20095;-62
2023/12/15 15:20:53;;;;;;;38.35;29.23;;;;;;;;;;10289846;28;20044;-62
2023/12/15 15:25:52;;;;;;;76.07;44.85;;;;;;;;;;10293731;28;20122;-63
2023/12/15 15:30:50;;;;;;;129.30;89.18;;;;;;;;;;10290537;28;20123;-63
2023/12/15 15:35:49;;;;;;;94.72;59.72;;;;;;;;;;10301985;28;20068;-62
2023/12/15 15:40:49;;;;;;;104.53;66.32;;;;;;;;;;10301206;28;20076;-62
2023/12/15 15:45:47;;;;;;;79.03;58.58;;;;;;;;;;10278229;28;20498;-63
2023/12/15 15:50:46;;;;;;;63.05;45.15;;;;;;;;;;10300534;28;20123;-63
2023/12/15 15:55:44;;;;;;;46.28;37.13;;;;;;;;;;10299158;28;20788;-64
2023/12/15 16:00:43;;;;;;;50.20;39.53;;;;;;;;;;10298038;28;21928;-62
2023/12/15 16:05:42;;;;;;;56.85;41.83;;;;;;;;;;10283025;28;20131;-63
2023/12/15 16:10:41;;;;;;;51.13;41.17;;;;;;;;;;10284513;28;20116;-62
2023/12/15 16:15:44;;;;;;;33.20;27.98;;;;;;;;;;10276587;28;20163;-63
2023/12/15 16:20:42;;;;;;;33.72;27.27;;;;;;;;;;10285644;28;20593;-63
2023/12/15 16:25:41;;;;;;;28.75;23.05;;;;;;;;;;10272042;28;20501;-63
2023/12/15 16:30:39;;;;;;;30.42;23.77;;;;;;;;;;10271402;28;20056;-62
2023/12/15 16:35:42;;;;;;;31.73;25.38;;;;;;;;;;10268055;28;20703;-63
2023/12/15 16:40:40;;;;;;;32.85;26.65;;;;;;;;;;10269907;28;20060;-63
2023/12/15 16:45:38;;;;;;;23.42;19.40;;;;;;;;;;10269972;28;20532;-63
2023/12/15 16:50:37;;;;;;;26.52;22.58;;;;;;;;;;10264791;28;20055;-63
2023/12/15 16:55:36;;;;;;;23.58;21.10;;;;;;;;;;10265971;28;20028;-61
2023/12/15 17:00:35;;;;;;;22.95;19.83;;;;;;;;;;10305427;28;20142;-63
2023/12/15 17:05:34;;;;;;;29.27;24.85;;;;;;;;;;10292107;28;20624;-62
2023/12/15 17:10:34;;;;;;;26.33;22.58;;;;;;;;;;10272652;28;20055;-62
2023/12/15 17:15:35;;;;;;;32.35;25.08;;;;;;;;;;10266203;28;20047;-63
2023/12/15 17:20:33;;;;;;;26.13;23.42;;;;;;;;;;10261973;28;20036;-63
2023/12/15 17:25:32;;;;;;;29.23;25.38;;;;;;;;;;10268569;28;20052;-62
2023/12/15 17:30:30;;;;;;;40.28;27.98;;;;;;;;;;10269659;28;20507;-62
2023/12/15 17:35:29;;;;;;;43.85;31.88;;;;;;;;;;10262991;28;20447;-63
2023/12/15 17:40:28;;;;;;;24.25;20.75;;;;;;;;;;10269015;28;20151;-63
2023/12/15 17:45:26;;;;;;;28.65;22.67;;;;;;;;;;10277761;28;20131;-63
2023/12/15 17:50:25;;;;;;;25.70;20.67;;;;;;;;;;10316281;28;20146;-63
2023/12/15 17:55:24;;;;;;;21.23;17.25;;;;;;;;;;10307753;28;20059;-64
2023/12/15 18:00:23;;;;;;;24.95;19.67;;;;;;;;;;10273582;28;20165;-63
2023/12/15 18:05:21;;;;;;;29.67;23.40;;;;;;;;;;10277869;28;20831;-64
2023/12/15 18:10:21;;;;;;;20.65;18.35;;;;;;;;;;10312190;28;20076;-64
2023/12/15 18:15:21;;;;;;;20.83;15.63;;;;;;;;;;10291840;28;20076;-63
2023/12/15 18:20:19;;;;;;;18.40;15.80;;;;;;;;;;10287200;28;20087;-62
2023/12/15 18:25:18;;;;;;;21.70;19.00;;;;;;;;;;10286140;28;20517;-63
2023/12/15 18:30:16;;;;;;;16.70;14.63;;;;;;;;;;10284890;28;20548;-63
2023/12/15 18:35:17;;;;;;;17.80;15.93;;;;;;;;;;10287373;28;20080;-63
2023/12/15 18:40:16;;;;;;;15.68;12.50;;;;;;;;;;10285421;28;20072;-63
2023/12/15 18:45:14;;;;;;;16.83;14.60;;;;;;;;;;10290867;28;20541;-62
2023/12/15 18:50:12;;;;;;;18.70;16.67;;;;;;;;;;10287614;28;20075;-63
2023/12/15 18:55:13;;;;;;;20.50;16.17;;;;;;;;;;10288323;28;20075;-63
2023/12/15 19:00:11;;;;;;;22.85;20.42;;;;;;;;;;10282128;28;20065;-61
2023/12/15 19:05:09;;;;;;;75.07;53.22;;;;;;;;;;10288722;28;20096;-62
2023/12/15 19:10:08;;;;;;;51.88;39.10;;;;;;;;;;10288662;28;20075;-62
2023/12/15 19:15:10;;;;;;;21.10;17.52;;;;;;;;;;10288039;28;20720;-62
2023/12/15 19:20:09;;;;;;;19.88;17.08;;;;;;;;;;10292468;28;20076;-62
2023/12/15 19:25:08;;;;;;;49.17;29.25;;;;;;;;;;10284541;28;20087;-63
2023/12/15 19:30:08;;;;;;;40.88;25.23;;;;;;;;;;10290523;28;20068;-62
2023/12/15 19:35:06;;;;;;;31.58;22.60;;;;;;;;;;10283494;28;20077;-62
2023/12/15 19:40:05;;;;;;;17.73;15.57;;;;;;;;;;10283108;28;20075;-61
2023/12/15 19:45:04;;;;;;;22.98;17.92;;;;;;;;;;10286653;28;20395;-63
2023/12/15 19:50:04;;;;;;;17.90;14.63;;;;;;;;;;10287250;28;20084;-62
2023/12/15 19:55:03;;;;;;;18.80;13.23;;;;;;;;;;10286972;28;20076;-63
2023/12/15 20:00:01;;;;;;;53.90;34.15;;;;;;;;;;10286960;28;20110;-62
2023/12/15 20:05:07;;;;;;;19.65;15.10;;;;;;;;;;10283652;28;20079;-64
2023/12/15 20:10:06;;;;;;;32.20;24.83;;;;;;;;;;10280123;28;20069;-62
2023/12/15 20:15:05;;;;;;;14.43;12.65;;;;;;;;;;10283219;28;20064;-63
2023/12/15 20:20:06;;;;;;;17.63;13.45;;;;;;;;;;10281897;28;20561;-63
2023/12/15 20:25:06;;;;;;;17.35;13.38;;;;;;;;;;10283752;28;20106;-63
2023/12/15 20:30:06;;;;;;;16.85;12.45;;;;;;;;;;10286984;28;20064;-64
2023/12/15 20:35:08;;;;;;;12.38;11.07;;;;;;;;;;10285907;28;20099;-62
2023/12/15 20:40:07;;;;;;;13.27;11.75;;;;;;;;;;10280258;28;20080;-63
2023/12/15 20:45:06;;;;;;;16.45;13.68;;;;;;;;;;10281985;28;20081;-62
2023/12/15 20:50:06;;;;;;;9.27;7.82;;;;;;;;;;10286004;28;20068;-63
2023/12/15 20:55:10;;;;;;;15.88;11.73;;;;;;;;;;10280119;28;20076;-62
2023/12/15 21:00:10;;;;;;;10.07;8.80;;;;;;;;;;10281768;28;20080;-62
2023/12/15 21:05:10;;;;;;;11.15;8.82;;;;;;;;;;10283366;28;20134;-63
2023/12/15 21:10:10;;;;;;;13.77;10.40;;;;;;;;;;10284177;28;20072;-62
2023/12/15 21:15:09;;;;;;;11.48;9.98;;;;;;;;;;10284383;28;20536;-63
2023/12/15 21:20:12;;;;;;;11.00;8.93;;;;;;;;;;10285999;28;20075;-62
2023/12/15 21:25:10;;;;;;;8.32;7.53;;;;;;;;;;10292377;28;20076;-62
2023/12/15 21:30:09;;;;;;;8.23;6.80;;;;;;;;;;10291850;28;20071;-62
2023/12/15 21:35:10;;;;;;;16.60;11.10;;;;;;;;;;10290406;28;20136;-63
2023/12/15 21:40:13;;;;;;;14.10;9.30;;;;;;;;;;10291378;28;20068;-61
2023/12/15 21:45:12;;;;;;;12.27;8.90;;;;;;;;;;10292331;28;20551;-62
2023/12/15 21:50:10;;;;;;;10.02;8.45;;;;;;;;;;10291354;28;20095;-63
2023/12/15 21:55:10;;;;;;;9.27;8.38;;;;;;;;;;10293099;28;20080;-62
2023/12/15 22:00:11;;;;;;;9.23;8.20;;;;;;;;;;10292865;28;20088;-63
2023/12/15 22:05:09;;;;;;;14.23;10.40;;;;;;;;;;10290755;28;20076;-62
2023/12/15 22:10:08;;;;;;;17.15;13.15;;;;;;;;;;10290474;28;20064;-62
2023/12/15 22:15:07;;;;;;;9.40;7.50;;;;;;;;;;10287835;28;20064;-62
2023/12/15 22:20:08;;;;;;;7.13;6.43;;;;;;;;;;10291677;28;20541;-62
2023/12/15 22:25:07;;;;;;;8.73;7.60;;;;;;;;;;10290688;28;20083;-63
2023/12/15 22:30:08;;;;;;;8.73;7.70;;;;;;;;;;10288920;28;20518;-63
2023/12/15 22:35:08;;;;;;;10.05;8.07;;;;;;;;;;10290326;28;20517;-63
2023/12/15 22:40:08;;;;;;;7.90;7.10;;;;;;;;;;10288235;28;20544;-61
2023/12/15 22:45:06;;;;;;;8.48;6.85;;;;;;;;;;10288976;28;20091;-62
2023/12/15 22:50:05;;;;;;;8.10;7.30;;;;;;;;;;10290740;28;20095;-62
2023/12/15 22:55:06;;;;;;;9.45;7.53;;;;;;;;;;10293545;28;20078;-63
2023/12/15 23:00:07;;;;;;;7.70;6.95;;;;;;;;;;10286534;28;20088;-62
2023/12/15 23:05:06;;;;;;;7.63;6.82;;;;;;;;;;10287216;28;20088;-61
2023/12/15 23:10:06;;;;;;;7.20;6.50;;;;;;;;;;10286416;28;20080;-61
2023/12/15 23:15:05;;;;;;;6.90;6.13;;;;;;;;;;10287317;28;20092;-61
2023/12/15 23:20:14;;;;;;;7.50;6.80;;;;;;;;;;10286030;28;20095;-61
2023/12/15 23:25:13;;;;;;;7.32;6.55;;;;;;;;;;10288975;28;20112;-61
2023/12/15 23:30:13;;;;;;;6.40;5.80;;;;;;;;;;10283150;28;20076;-60
2023/12/15 23:35:11;;;;;;;7.32;6.53;;;;;;;;;;10286671;28;20076;-61
2023/12/15 23:40:10;;;;;;;6.30;5.70;;;;;;;;;;10284887;28;20083;-61
2023/12/15 23:45:10;;;;;;;6.15;5.55;;;;;;;;;;10282828;28;20091;-61
2023/12/15 23:50:10;;;;;;;6.80;6.10;;;;;;;;;;10284124;28;20083;-62
2023/12/15 23:55:09;;;;;;;6.95;6.25;;;;;;;;;;10289633;28;20086;-58
